Time;durP1;ratioP1;P1;durP2;ratioP2;P2;SDS_P1;SDS_P2;PMS_P1;PMS_P2;Temp;Humidity;BMP_temperature;BMP_pressure;BME280_temperature;BME280_humidity;BME280_pressure;Samples;Min_cycle;Max_cycle;Signal;HPM_P1;HPM_P2
2021/05/02 00:00:01;;;;;;;;;;;22.50;41.80;;;;;;1559571;75;1959;-71
2021/05/02 00:02:03;;;;;;;;;;;22.50;41.80;;;;;;1552245;75;706;-68
2021/05/02 00:04:05;;;;;;;;;;;22.50;41.90;;;;;;1552491;75;785;-71
2021/05/02 00:06:08;;;;;;;;;;;22.50;41.90;;;;;;1557974;75;758;-72
2021/05/02 00:08:10;;;;;;;;;;;22.50;42.10;;;;;;1553997;75;1189;-70
2021/05/02 00:10:12;;;;;;;;;;;22.50;42.10;;;;;;1562612;75;764;-72
2021/05/02 00:12:14;;;;;;;;;;;22.50;42.10;;;;;;1557839;75;809;-72
2021/05/02 00:14:16;;;;;;;;;;;22.50;42.30;;;;;;1555637;75;738;-72
2021/05/02 00:16:18;;;;;;;;;;;22.50;42.30;;;;;;1585329;73;876;-71
2021/05/02 00:18:21;;;;;;;;;;;22.50;42.30;;;;;;1586526;73;1944;-72
2021/05/02 00:20:24;;;;;;;;;;;22.50;42.30;;;;;;1581626;73;1798;-71
2021/05/02 00:22:26;;;;;;;;;;;22.50;42.30;;;;;;1596773;73;815;-72
2021/05/02 00:24:27;;;;;;;;;;;22.50;42.30;;;;;;1589069;73;735;-70
2021/05/02 00:26:29;;;;;;;;;;;22.50;42.30;;;;;;1562271;75;725;-69
2021/05/02 00:28:33;;;;;;;;;;;22.60;42.30;;;;;;1594942;73;1167;-71
2021/05/02 00:30:35;;;;;;;;;;;22.60;42.40;;;;;;1562027;75;696;-71
2021/05/02 00:32:37;;;;;;;;;;;22.50;42.40;;;;;;1588767;74;844;-71
2021/05/02 00:34:39;;;;;;;;;;;22.50;42.30;;;;;;1564659;75;679;-68
2021/05/02 00:36:40;;;;;;;;;;;22.50;42.30;;;;;;1584890;73;784;-71
2021/05/02 00:38:42;;;;;;;;;;;22.50;42.40;;;;;;1583616;73;1942;-71
2021/05/02 00:40:44;;;;;;;;;;;22.50;42.30;;;;;;1583089;73;767;-70
2021/05/02 00:42:47;;;;;;;;;;;22.50;42.30;;;;;;1590595;73;745;-70
2021/05/02 00:44:49;;;;;;;;;;;22.50;42.30;;;;;;1556037;75;842;-68
2021/05/02 00:46:53;;;;;;;;;;;22.60;42.30;;;;;;1560601;75;794;-71
2021/05/02 00:49:08;;;;;;;;;;;22.60;42.30;;;;;;1555204;75;1176;-70
2021/05/02 00:51:11;;;;;;;;;;;22.60;42.20;;;;;;1568232;75;722;-70
2021/05/02 00:53:14;;;;;;;;;;;22.60;42.20;;;;;;1593928;73;788;-71
2021/05/02 00:55:17;;;;;;;;;;;22.60;42.20;;;;;;1597337;73;727;-70
2021/05/02 00:57:23;;;;;;;;;;;22.60;42.20;;;;;;1589463;73;1744;-71
2021/05/02 00:59:36;;;;;;;;;;;22.60;42.10;;;;;;1569790;75;1951;-71
2021/05/02 01:01:39;;;;;;;;;;;22.50;42.10;;;;;;1558547;75;1087;-70
2021/05/02 01:03:41;;;;;;;;;;;22.60;42.10;;;;;;1591566;73;1779;-70
2021/05/02 01:05:43;;;;;;;;;;;22.50;42.00;;;;;;1585776;73;728;-71
2021/05/02 01:07:45;;;;;;;;;;;22.50;42.00;;;;;;1599672;73;814;-71
2021/05/02 01:09:47;;;;;;;;;;;22.60;42.00;;;;;;1585572;73;1133;-71
2021/05/02 01:11:48;;;;;;;;;;;22.60;41.90;;;;;;1550552;75;814;-70
2021/05/02 01:13:54;;;;;;;;;;;22.60;41.80;;;;;;1551903;75;831;-70
2021/05/02 01:15:58;;;;;;;;;;;22.50;41.80;;;;;;1595871;73;619;-70
2021/05/02 01:18:04;;;;;;;;;;;22.60;41.80;;;;;;1585316;73;1005;-71
2021/05/02 01:20:06;;;;;;;;;;;22.60;41.80;;;;;;1589220;73;1940;-70
2021/05/02 01:22:10;;;;;;;;;;;22.50;41.80;;;;;;1568721;75;718;-70
2021/05/02 01:24:12;;;;;;;;;;;22.60;41.80;;;;;;1559950;75;863;-70
2021/05/02 01:26:13;;;;;;;;;;;22.60;41.90;;;;;;1550082;75;750;-70
2021/05/02 01:28:15;;;;;;;;;;;22.60;41.80;;;;;;1568302;75;1182;-68
2021/05/02 01:30:18;;;;;;;;;;;22.60;41.80;;;;;;1570322;75;755;-69
2021/05/02 01:32:20;;;;;;;;;;;22.60;41.80;;;;;;1558075;75;803;-70
2021/05/02 01:34:21;;;;;;;;;;;22.50;41.90;;;;;;1561567;75;802;-70
2021/05/02 01:36:23;;;;;;;;;;;22.50;41.90;;;;;;1549349;75;868;-68
2021/05/02 01:38:25;;;;;;;;;;;22.60;41.90;;;;;;1553809;75;1166;-71
2021/05/02 01:40:27;;;;;;;;;;;22.50;41.80;;;;;;1552822;75;1941;-70
2021/05/02 01:42:29;;;;;;;;;;;22.60;41.80;;;;;;1587881;73;842;-70
2021/05/02 01:44:31;;;;;;;;;;;22.50;41.80;;;;;;1557166;75;741;-70
2021/05/02 01:46:40;;;;;;;;;;;22.50;41.80;;;;;;1563340;75;719;-72
2021/05/02 01:48:42;;;;;;;;;;;22.50;41.80;;;;;;1555295;75;215643;-58
2021/05/02 01:50:55;;;;;;;;;;;22.50;41.70;;;;;;1524447;76;1186;-58
2021/05/02 01:52:56;;;;;;;;;;;22.50;41.70;;;;;;1508899;76;1795;-58
2021/05/02 01:54:59;;;;;;;;;;;22.50;41.70;;;;;;1515846;76;721;-58
2021/05/02 01:57:01;;;;;;;;;;;22.50;41.70;;;;;;1506575;76;853;-58
2021/05/02 01:59:03;;;;;;;;;;;22.50;41.60;;;;;;1506802;76;1951;-58
2021/05/02 02:01:10;;;;;;;;;;;22.50;41.60;;;;;;1510994;76;758;-56
2021/05/02 02:03:12;;;;;;;;;;;22.40;41.60;;;;;;1510696;76;772;-55
2021/05/02 02:05:14;;;;;;;;;;;22.50;41.80;;;;;;1511839;76;783;-57
2021/05/02 02:07:16;;;;;;;;;;;22.60;41.70;;;;;;1514079;76;771;-57
2021/05/02 02:09:17;;;;;;;;;;;22.50;41.70;;;;;;1502046;76;1134;-58
2021/05/02 02:11:19;;;;;;;;;;;22.50;41.60;;;;;;1505860;76;734;-58
2021/05/02 02:13:22;;;;;;;;;;;22.50;41.60;;;;;;1513981;76;715;-57
2021/05/02 02:15:24;;;;;;;;;;;22.50;41.50;;;;;;1505117;76;762;-59
2021/05/02 02:17:25;;;;;;;;;;;22.50;41.50;;;;;;1491789;77;731;-58
2021/05/02 02:19:27;;;;;;;;;;;22.50;41.50;;;;;;1516227;76;1933;-58
2021/05/02 02:21:29;;;;;;;;;;;22.50;41.50;;;;;;1507791;76;755;-57
2021/05/02 02:23:32;;;;;;;;;;;22.50;41.40;;;;;;1505948;76;692;-55
2021/05/02 02:25:34;;;;;;;;;;;22.50;41.50;;;;;;1508390;76;760;-58
2021/05/02 02:27:36;;;;;;;;;;;22.50;41.40;;;;;;1509890;76;786;-58
2021/05/02 02:29:40;;;;;;;;;;;22.50;41.40;;;;;;1514743;76;1127;-57
2021/05/02 02:31:42;;;;;;;;;;;22.50;41.40;;;;;;1502441;76;1850;-57
2021/05/02 02:33:44;;;;;;;;;;;22.50;41.40;;;;;;1509377;76;697;-57
2021/05/02 02:35:52;;;;;;;;;;;22.40;41.30;;;;;;1509653;76;781;-55
2021/05/02 02:37:56;;;;;;;;;;;22.40;41.40;;;;;;1513905;76;767;-58
2021/05/02 02:39:59;;;;;;;;;;;22.40;41.40;;;;;;1508269;76;1951;-57
2021/05/02 02:42:01;;;;;;;;;;;22.30;41.40;;;;;;1513126;76;759;-58
2021/05/02 02:44:03;;;;;;;;;;;22.20;41.20;;;;;;1514908;76;714;-57
2021/05/02 02:46:05;;;;;;;;;;;22.30;41.50;;;;;;1504255;76;684;-57
2021/05/02 02:48:07;;;;;;;;;;;22.20;41.30;;;;;;1506542;76;807;-58
2021/05/02 02:50:10;;;;;;;;;;;22.10;41.40;;;;;;1510457;76;1129;-58
2021/05/02 02:52:12;;;;;;;;;;;22.10;41.50;;;;;;1503182;76;725;-57
2021/05/02 02:54:14;;;;;;;;;;;22.10;41.40;;;;;;1501670;76;773;-57
2021/05/02 02:56:17;;;;;;;;;;;22.10;41.60;;;;;;1512729;76;790;-56
2021/05/02 02:58:19;;;;;;;;;;;22.00;41.50;;;;;;1510276;76;1676;-57
2021/05/02 03:00:22;;;;;;;;;;;22.00;41.60;;;;;;1511074;76;1977;-54
2021/05/02 03:02:24;;;;;;;;;;;22.00;41.70;;;;;;1507073;76;716;-57
2021/05/02 03:04:26;;;;;;;;;;;22.10;41.80;;;;;;1507671;76;788;-58
2021/05/02 03:06:28;;;;;;;;;;;22.00;41.70;;;;;;1508839;76;729;-58
2021/05/02 03:08:31;;;;;;;;;;;22.10;41.70;;;;;;1501844;76;802;-57
2021/05/02 03:10:32;;;;;;;;;;;22.00;41.80;;;;;;1509658;76;1134;-56
2021/05/02 03:12:34;;;;;;;;;;;22.00;41.80;;;;;;1502610;76;913;-57
2021/05/02 03:14:36;;;;;;;;;;;22.00;41.70;;;;;;1504481;76;743;-57
2021/05/02 03:16:38;;;;;;;;;;;22.00;41.70;;;;;;1504711;76;740;-57
2021/05/02 03:18:48;;;;;;;;;;;22.10;42.10;;;;;;1506042;76;774;-55
2021/05/02 03:20:51;;;;;;;;;;;22.10;42.10;;;;;;1500914;76;1952;-59
2021/05/02 03:22:55;;;;;;;;;;;22.10;42.10;;;;;;1506013;76;1941;-58
2021/05/02 03:24:57;;;;;;;;;;;22.10;42.00;;;;;;1507549;76;749;-55
2021/05/02 03:27:00;;;;;;;;;;;22.10;42.10;;;;;;1506554;76;782;-58
2021/05/02 03:29:03;;;;;;;;;;;22.20;41.90;;;;;;1484426;76;990;-56
2021/05/02 03:31:05;;;;;;;;;;;22.20;41.90;;;;;;1501004;76;771;-55
2021/05/02 03:33:07;;;;;;;;;;;22.10;41.70;;;;;;1502012;76;786;-54
2021/05/02 03:35:09;;;;;;;;;;;22.20;41.80;;;;;;1502362;76;729;-55
2021/05/02 03:37:12;;;;;;;;;;;22.20;41.80;;;;;;1507552;76;770;-55
2021/05/02 03:39:14;;;;;;;;;;;22.20;41.60;;;;;;1502583;76;1200;-57
2021/05/02 03:41:16;;;;;;;;;;;22.20;41.60;;;;;;1504147;76;1951;-58
2021/05/02 03:43:18;;;;;;;;;;;22.20;41.60;;;;;;1503757;76;755;-58
2021/05/02 03:45:20;;;;;;;;;;;22.20;41.60;;;;;;1510336;76;687;-57
2021/05/02 03:47:22;;;;;;;;;;;22.30;41.70;;;;;;1510857;76;781;-57
2021/05/02 03:49:24;;;;;;;;;;;22.20;41.50;;;;;;1504085;76;1145;-55
2021/05/02 03:51:26;;;;;;;;;;;22.20;41.50;;;;;;1511268;76;771;-57
2021/05/02 03:53:28;;;;;;;;;;;22.20;41.50;;;;;;1515585;76;744;-59
2021/05/02 03:55:30;;;;;;;;;;;22.30;41.50;;;;;;1522257;76;719;-59
2021/05/02 03:57:32;;;;;;;;;;;22.30;41.40;;;;;;1517016;76;726;-58
2021/05/02 03:59:34;;;;;;;;;;;22.30;41.30;;;;;;1519450;76;1152;-57
2021/05/02 04:01:36;;;;;;;;;;;22.30;41.30;;;;;;1517585;76;1936;-57
2021/05/02 04:03:38;;;;;;;;;;;22.30;41.30;;;;;;1515405;76;829;-58
2021/05/02 04:05:41;;;;;;;;;;;22.20;41.00;;;;;;1522544;76;795;-58
2021/05/02 04:07:43;;;;;;;;;;;22.30;41.20;;;;;;1518461;76;793;-58
2021/05/02 04:09:46;;;;;;;;;;;22.30;41.20;;;;;;1525383;76;1159;-56
2021/05/02 04:11:48;;;;;;;;;;;22.30;41.20;;;;;;1529008;76;755;-57
2021/05/02 04:13:50;;;;;;;;;;;22.30;41.20;;;;;;1512240;76;785;-57
2021/05/02 04:15:51;;;;;;;;;;;22.30;41.10;;;;;;1508998;76;811;-55
2021/05/02 04:17:53;;;;;;;;;;;22.30;41.10;;;;;;1518705;76;808;-54
2021/05/02 04:19:55;;;;;;;;;;;22.30;41.20;;;;;;1523135;76;1941;-58
2021/05/02 04:21:57;;;;;;;;;;;22.40;41.10;;;;;;1515648;76;710;-56
2021/05/02 04:23:59;;;;;;;;;;;22.30;41.10;;;;;;1530364;76;799;-59
2021/05/02 04:26:01;;;;;;;;;;;22.40;41.00;;;;;;1514385;76;734;-58
2021/05/02 04:28:03;;;;;;;;;;;22.30;41.10;;;;;;1518457;76;704;-57
2021/05/02 04:30:05;;;;;;;;;;;22.30;41.00;;;;;;1518303;76;1157;-57
2021/05/02 04:32:07;;;;;;;;;;;22.40;41.00;;;;;;1510313;76;753;-59
2021/05/02 04:34:09;;;;;;;;;;;22.40;41.00;;;;;;1515519;76;661;-55
2021/05/02 04:36:11;;;;;;;;;;;22.30;41.00;;;;;;1518288;76;681;-57
2021/05/02 04:38:13;;;;;;;;;;;22.30;41.00;;;;;;1514817;76;832;-55
2021/05/02 04:40:15;;;;;;;;;;;22.30;41.00;;;;;;1525318;76;1929;-58
2021/05/02 04:42:17;;;;;;;;;;;22.30;41.00;;;;;;1514821;76;710;-58
2021/05/02 04:44:19;;;;;;;;;;;22.30;41.00;;;;;;1512590;76;799;-57
2021/05/02 04:46:21;;;;;;;;;;;22.30;41.00;;;;;;1516614;76;795;-58
2021/05/02 04:48:22;;;;;;;;;;;22.40;40.90;;;;;;1517218;76;793;-58
2021/05/02 04:50:24;;;;;;;;;;;22.30;40.80;;;;;;1512846;76;1122;-57
2021/05/02 04:52:26;;;;;;;;;;;22.30;40.90;;;;;;1516498;76;960;-58
2021/05/02 04:54:28;;;;;;;;;;;22.30;40.90;;;;;;1515625;76;671;-57
2021/05/02 04:56:30;;;;;;;;;;;22.40;40.70;;;;;;1511192;76;810;-58
2021/05/02 04:58:32;;;;;;;;;;;22.30;40.90;;;;;;1512229;76;817;-56
2021/05/02 05:00:34;;;;;;;;;;;22.40;40.90;;;;;;1515906;76;1951;-52
2021/05/02 05:02:36;;;;;;;;;;;22.30;40.80;;;;;;1520939;76;871;-58
2021/05/02 05:04:38;;;;;;;;;;;22.30;40.70;;;;;;1513220;76;761;-58
2021/05/02 05:06:40;;;;;;;;;;;22.40;40.70;;;;;;1519012;76;731;-59
2021/05/02 05:08:41;;;;;;;;;;;22.30;40.70;;;;;;1519748;76;802;-58
2021/05/02 05:10:44;;;;;;;;;;;22.40;40.70;;;;;;1525766;76;1118;-58
2021/05/02 05:12:45;;;;;;;;;;;22.40;40.60;;;;;;1518282;76;752;-54
2021/05/02 05:14:47;;;;;;;;;;;22.30;40.70;;;;;;1521048;76;648;-57
2021/05/02 05:16:49;;;;;;;;;;;22.40;40.60;;;;;;1517233;76;763;-57
2021/05/02 05:18:51;;;;;;;;;;;22.40;40.60;;;;;;1518262;76;592;-54
2021/05/02 05:20:53;;;;;;;;;;;22.40;40.60;;;;;;1519435;76;1950;-58
2021/05/02 05:22:55;;;;;;;;;;;22.40;40.60;;;;;;1519227;76;742;-55
2021/05/02 05:24:58;;;;;;;;;;;22.40;40.50;;;;;;1517053;76;749;-58
2021/05/02 05:27:00;;;;;;;;;;;22.30;40.50;;;;;;1520995;76;757;-55
2021/05/02 05:29:02;;;;;;;;;;;22.40;40.60;;;;;;1519991;76;752;-54
2021/05/02 05:31:03;;;;;;;;;;;22.40;40.60;;;;;;1518964;76;1101;-57
2021/05/02 05:33:06;;;;;;;;;;;22.40;40.60;;;;;;1516752;76;716;-57
2021/05/02 05:35:09;;;;;;;;;;;22.40;40.60;;;;;;1530589;76;911;-58
2021/05/02 05:37:10;;;;;;;;;;;22.40;40.50;;;;;;1527988;76;703;-58
2021/05/02 05:39:12;;;;;;;;;;;22.40;40.50;;;;;;1517122;76;1149;-53
2021/05/02 05:41:14;;;;;;;;;;;22.50;40.70;;;;;;1510340;76;1941;-57
2021/05/02 05:43:16;;;;;;;;;;;22.40;40.50;;;;;;1510807;76;712;-58
2021/05/02 05:45:22;;;;;;;;;;;22.50;40.70;;;;;;1518622;76;760;-58
2021/05/02 05:47:21;;;;;;;;;;;22.40;40.70;;;;;;1513981;76;1183;-56
2021/05/02 05:49:23;;;;;;;;;;;22.40;40.60;;;;;;1515103;76;1134;-56
2021/05/02 05:51:25;;;;;;;;;;;22.40;40.60;;;;;;1518492;76;792;-56
2021/05/02 05:53:27;;;;;;;;;;;22.40;40.60;;;;;;1512662;76;780;-54
2021/05/02 05:55:29;;;;;;;;;;;22.40;40.60;;;;;;1516960;76;713;-58
2021/05/02 05:57:31;;;;;;;;;;;22.50;40.70;;;;;;1517380;76;827;-58
2021/05/02 05:59:33;;;;;;;;;;;22.40;40.60;;;;;;1517084;76;1106;-57
2021/05/02 06:01:35;;;;;;;;;;;22.50;40.80;;;;;;1517814;76;1938;-58
2021/05/02 06:03:37;;;;;;;;;;;22.50;40.70;;;;;;1515315;76;839;-56
2021/05/02 06:05:39;;;;;;;;;;;22.40;40.50;;;;;;1510403;76;737;-56
2021/05/02 06:07:41;;;;;;;;;;;22.40;40.70;;;;;;1516144;76;826;-58
2021/05/02 06:09:43;;;;;;;;;;;22.50;40.90;;;;;;1519075;76;1114;-57
2021/05/02 06:11:50;;;;;;;;;;;22.50;40.80;;;;;;1521095;76;737;-53
2021/05/02 06:13:48;;;;;;;;;;;22.40;40.50;;;;;;1515962;76;1567;-58
2021/05/02 06:15:50;;;;;;;;;;;22.40;40.60;;;;;;1518292;76;800;-58
2021/05/02 06:17:52;;;;;;;;;;;22.50;40.70;;;;;;1514157;76;761;-56
2021/05/02 06:19:54;;;;;;;;;;;22.50;40.50;;;;;;1524284;76;1152;-58
2021/05/02 06:21:56;;;;;;;;;;;22.40;40.30;;;;;;1517254;76;1919;-58
2021/05/02 06:23:57;;;;;;;;;;;22.50;40.60;;;;;;1519807;76;816;-56
2021/05/02 06:25:59;;;;;;;;;;;22.40;40.70;;;;;;1516456;76;721;-56
2021/05/02 06:28:01;;;;;;;;;;;22.50;40.60;;;;;;1509786;76;767;-55
2021/05/02 06:30:04;;;;;;;;;;;22.50;40.70;;;;;;1504182;76;1190;-58
2021/05/02 06:32:06;;;;;;;;;;;22.50;40.70;;;;;;1507108;76;726;-56
2021/05/02 06:34:08;;;;;;;;;;;22.50;40.60;;;;;;1505659;76;684;-56
2021/05/02 06:36:10;;;;;;;;;;;22.60;40.50;;;;;;1505756;76;709;-56
2021/05/02 06:38:11;;;;;;;;;;;22.50;40.50;;;;;;1501942;76;680;-57
2021/05/02 06:40:13;;;;;;;;;;;22.50;40.50;;;;;;1501827;76;1163;-58
2021/05/02 06:42:15;;;;;;;;;;;22.50;40.50;;;;;;1496621;76;1943;-55
2021/05/02 06:44:17;;;;;;;;;;;22.50;40.50;;;;;;1501268;76;738;-56
2021/05/02 06:46:28;;;;;;;;;;;22.50;40.50;;;;;;1504244;76;819;-52
2021/05/02 06:48:30;;;;;;;;;;;22.50;40.50;;;;;;1506286;76;773;-58
2021/05/02 06:50:32;;;;;;;;;;;22.50;40.50;;;;;;1511366;76;1156;-57
2021/05/02 06:52:34;;;;;;;;;;;22.60;40.50;;;;;;1506517;76;823;-58
2021/05/02 06:54:36;;;;;;;;;;;22.50;40.40;;;;;;1507280;76;762;-57
2021/05/02 06:56:37;;;;;;;;;;;22.60;40.30;;;;;;1512182;76;786;-56
2021/05/02 06:58:39;;;;;;;;;;;22.60;40.20;;;;;;1508108;76;639;-54
2021/05/02 07:00:41;;;;;;;;;;;22.60;40.30;;;;;;1508152;76;1091;-54
2021/05/02 07:02:43;;;;;;;;;;;22.60;40.20;;;;;;1513160;76;756;-54
2021/05/02 07:04:45;;;;;;;;;;;22.60;40.20;;;;;;1506728;76;772;-57
2021/05/02 07:06:47;;;;;;;;;;;22.60;40.20;;;;;;1510466;76;746;-58
2021/05/02 07:08:49;;;;;;;;;;;22.60;40.10;;;;;;1506179;76;692;-59
2021/05/02 07:10:50;;;;;;;;;;;22.60;40.00;;;;;;1498160;76;1132;-58
2021/05/02 07:12:52;;;;;;;;;;;22.70;40.20;;;;;;1512424;76;685;-58
2021/05/02 07:14:54;;;;;;;;;;;22.70;40.40;;;;;;1508408;76;734;-55
2021/05/02 07:16:56;;;;;;;;;;;22.80;40.30;;;;;;1500031;76;689;-53
2021/05/02 07:18:58;;;;;;;;;;;22.80;40.30;;;;;;1505607;76;730;-59
2021/05/02 07:21:00;;;;;;;;;;;22.80;40.40;;;;;;1498269;76;1929;-58
2021/05/02 07:23:02;;;;;;;;;;;22.80;40.40;;;;;;1505053;76;737;-58
2021/05/02 07:25:05;;;;;;;;;;;22.70;40.30;;;;;;1506037;76;770;-58
2021/05/02 07:27:07;;;;;;;;;;;22.80;40.30;;;;;;1510566;76;706;-56
2021/05/02 07:29:08;;;;;;;;;;;22.80;40.40;;;;;;1510568;76;1170;-57
2021/05/02 07:31:13;;;;;;;;;;;22.80;40.30;;;;;;1504515;76;779;-59
2021/05/02 07:33:15;;;;;;;;;;;22.80;40.50;;;;;;1504105;76;687;-55
2021/05/02 07:35:17;;;;;;;;;;;22.80;40.30;;;;;;1509775;76;729;-58
2021/05/02 07:37:19;;;;;;;;;;;22.80;40.20;;;;;;1500337;76;722;-56
2021/05/02 07:39:21;;;;;;;;;;;22.80;40.00;;;;;;1502213;76;1168;-57
2021/05/02 07:41:23;;;;;;;;;;;22.80;39.60;;;;;;1503465;76;1935;-57
2021/05/02 07:43:24;;;;;;;;;;;22.90;39.40;;;;;;1502683;76;718;-57
2021/05/02 07:45:26;;;;;;;;;;;22.90;39.30;;;;;;1504839;76;709;-58
2021/05/02 07:47:28;;;;;;;;;;;22.80;39.10;;;;;;1515091;76;736;-57
2021/05/02 07:49:30;;;;;;;;;;;22.90;39.20;;;;;;1510447;73;218023;-72
2021/05/02 07:51:32;;;;;;;;;;;22.80;39.00;;;;;;1490923;78;734;-73
2021/05/02 07:53:34;;;;;;;;;;;22.90;39.10;;;;;;1500367;77;726;-73
2021/05/02 07:55:36;;;;;;;;;;;22.80;38.90;;;;;;1491858;78;729;-71
2021/05/02 07:57:37;;;;;;;;;;;22.80;38.80;;;;;;1489878;77;787;-71
2021/05/02 07:59:39;;;;;;;;;;;22.70;38.80;;;;;;1483239;78;1230;-71
2021/05/02 08:01:41;;;;;;;;;;;22.70;38.80;;;;;;1512014;77;1925;-70
2021/05/02 08:03:43;;;;;;;;;;;22.70;38.80;;;;;;1512770;77;679;-72
2021/05/02 08:05:45;;;;;;;;;;;22.70;38.90;;;;;;1515320;77;728;-72
2021/05/02 08:07:47;;;;;;;;;;;22.70;38.90;;;;;;1516884;77;813;-73
2021/05/02 08:09:49;;;;;;;;;;;22.60;38.70;;;;;;1513429;77;1115;-72
2021/05/02 08:11:51;;;;;;;;;;;22.60;38.80;;;;;;1515615;77;741;-74
2021/05/02 08:13:53;;;;;;;;;;;22.70;38.90;;;;;;1513628;77;746;-72
2021/05/02 08:15:55;;;;;;;;;;;22.60;38.80;;;;;;1513565;77;788;-72
2021/05/02 08:17:57;;;;;;;;;;;22.60;38.80;;;;;;1514490;77;701;-71
2021/05/02 08:19:59;;;;;;;;;;;22.60;38.90;;;;;;1510401;77;1126;-70
2021/05/02 08:22:03;;;;;;;;;;;22.60;38.90;;;;;;1513040;77;1935;-71
2021/05/02 08:24:05;;;;;;;;;;;22.60;39.00;;;;;;1511616;77;785;-72
2021/05/02 08:26:07;;;;;;;;;;;22.60;38.80;;;;;;1513260;77;703;-72
2021/05/02 08:28:09;;;;;;;;;;;22.60;38.90;;;;;;1513461;77;728;-76
2021/05/02 08:30:11;;;;;;;;;;;22.60;38.90;;;;;;1515563;77;1166;-73
2021/05/02 08:32:12;;;;;;;;;;;22.60;38.80;;;;;;1513173;77;783;-73
2021/05/02 08:34:14;;;;;;;;;;;22.60;38.70;;;;;;1512123;77;837;-73
2021/05/02 08:36:17;;;;;;;;;;;22.70;38.80;;;;;;1513586;77;771;-71
2021/05/02 08:38:19;;;;;;;;;;;22.60;38.80;;;;;;1515087;77;766;-71
2021/05/02 08:40:21;;;;;;;;;;;22.60;38.70;;;;;;1512569;77;1130;-73
2021/05/02 08:42:23;;;;;;;;;;;22.60;38.70;;;;;;1512746;77;1945;-72
2021/05/02 08:44:25;;;;;;;;;;;22.70;38.80;;;;;;1509717;77;804;-72
2021/05/02 08:46:28;;;;;;;;;;;22.60;38.60;;;;;;1512324;77;724;-72
2021/05/02 08:48:30;;;;;;;;;;;22.60;38.70;;;;;;1508396;77;735;-72
2021/05/02 08:50:32;;;;;;;;;;;22.60;38.70;;;;;;1517157;77;1060;-74
2021/05/02 08:52:33;;;;;;;;;;;22.70;38.70;;;;;;1515637;77;730;-73
2021/05/02 08:54:35;;;;;;;;;;;22.80;38.70;;;;;;1509301;77;721;-72
2021/05/02 08:56:37;;;;;;;;;;;22.80;38.60;;;;;;1513951;77;738;-73
2021/05/02 08:58:39;;;;;;;;;;;22.70;38.70;;;;;;1510939;77;872;-72
2021/05/02 09:00:41;;;;;;;;;;;22.60;38.60;;;;;;1519057;77;1079;-72
2021/05/02 09:02:44;;;;;;;;;;;22.70;38.60;;;;;;1515398;77;1928;-72
2021/05/02 09:04:54;;;;;;;;;;;22.70;38.70;;;;;;1514746;77;1706;-73
2021/05/02 09:06:56;;;;;;;;;;;22.60;38.70;;;;;;1518401;77;1779;-73
2021/05/02 09:09:01;;;;;;;;;;;22.70;38.60;;;;;;1512916;77;1178;-73
2021/05/02 09:11:02;;;;;;;;;;;22.70;38.70;;;;;;1515503;77;1601;-72
2021/05/02 09:13:06;;;;;;;;;;;22.70;38.70;;;;;;1509773;77;828;-74
2021/05/02 09:15:09;;;;;;;;;;;22.70;38.70;;;;;;1515184;77;1323;-73
2021/05/02 09:17:14;;;;;;;;;;;22.60;38.70;;;;;;1515136;77;1968;-73
2021/05/02 09:19:15;;;;;;;;;;;22.60;38.70;;;;;;1510241;77;1670;-72
2021/05/02 09:21:21;;;;;;;;;;;22.60;38.60;;;;;;1516064;77;745;-72
2021/05/02 09:23:23;;;;;;;;;;;22.70;38.70;;;;;;1508035;77;1929;-74
2021/05/02 09:25:25;;;;;;;;;;;22.60;38.70;;;;;;1509795;77;751;-72
2021/05/02 09:27:26;;;;;;;;;;;22.70;38.70;;;;;;1517160;77;932;-73
2021/05/02 09:29:33;;;;;;;;;;;22.60;38.70;;;;;;1511011;77;1145;-74
2021/05/02 09:31:35;;;;;;;;;;;22.60;38.60;;;;;;1510994;77;794;-73
2021/05/02 09:33:37;;;;;;;;;;;22.60;38.60;;;;;;1512335;77;695;-72
2021/05/02 09:35:39;;;;;;;;;;;22.60;38.60;;;;;;1512658;77;719;-73
2021/05/02 09:37:41;;;;;;;;;;;22.60;38.70;;;;;;1513136;77;770;-73
2021/05/02 09:39:46;;;;;;;;;;;22.70;38.80;;;;;;1513742;77;1170;-72
2021/05/02 09:41:47;;;;;;;;;;;22.60;38.70;;;;;;1513984;77;1969;-72
2021/05/02 09:43:49;;;;;;;;;;;22.60;38.60;;;;;;1514876;77;732;-73
2021/05/02 09:46:07;;;;;;;;;;;22.60;38.60;;;;;;1511988;77;711;-72
2021/05/02 09:48:09;;;;;;;;;;;22.70;38.70;;;;;;1513517;77;906;-72
2021/05/02 09:50:13;;;;;;;;;;;22.70;38.70;;;;;;1511176;77;1127;-74
2021/05/02 09:52:15;;;;;;;;;;;22.60;38.70;;;;;;1509336;77;706;-79
2021/05/02 09:54:17;;;;;;;;;;;22.70;38.70;;;;;;1509499;77;703;-72
2021/05/02 09:56:19;;;;;;;;;;;22.70;38.60;;;;;;1507590;77;843;-75
2021/05/02 09:58:22;;;;;;;;;;;22.80;38.70;;;;;;1507105;77;785;-74
2021/05/02 10:00:28;;;;;;;;;;;22.80;38.70;;;;;;1510724;77;1143;-75
2021/05/02 10:02:30;;;;;;;;;;;22.70;38.60;;;;;;1505873;77;1917;-74
2021/05/02 10:04:32;;;;;;;;;;;22.70;38.60;;;;;;1514478;77;736;-76
2021/05/02 10:06:35;;;;;;;;;;;22.70;38.60;;;;;;1514781;77;911;-76
2021/05/02 10:08:38;;;;;;;;;;;22.70;38.60;;;;;;1509746;77;759;-73
2021/05/02 10:10:40;;;;;;;;;;;22.60;38.50;;;;;;1512532;77;1114;-74
2021/05/02 10:12:42;;;;;;;;;;;22.70;38.70;;;;;;1510307;77;776;-73
2021/05/02 10:14:44;;;;;;;;;;;22.70;38.60;;;;;;1509633;77;869;-74
2021/05/02 10:16:46;;;;;;;;;;;22.70;38.60;;;;;;1505780;77;761;-74
2021/05/02 10:18:48;;;;;;;;;;;22.70;38.50;;;;;;1510296;77;706;-70
2021/05/02 10:20:49;;;;;;;;;;;22.80;38.40;;;;;;1508656;77;1149;-74
2021/05/02 10:22:52;;;;;;;;;;;22.80;38.40;;;;;;1510709;77;1946;-74
2021/05/02 10:24:53;;;;;;;;;;;22.80;38.50;;;;;;1516288;77;785;-77
2021/05/02 10:26:55;;;;;;;;;;;22.80;38.40;;;;;;1513422;77;882;-73
2021/05/02 10:28:57;;;;;;;;;;;22.80;38.40;;;;;;1509372;77;1184;-75
2021/05/02 10:31:00;;;;;;;;;;;22.80;38.40;;;;;;1508800;77;715;-75
2021/05/02 10:33:04;;;;;;;;;;;22.80;38.40;;;;;;1509115;77;769;-72
2021/05/02 10:35:06;;;;;;;;;;;22.80;38.40;;;;;;1507122;77;1030;-73
2021/05/02 10:37:27;;;;;;;;;;;22.80;38.40;;;;;;1513456;77;723;-74
2021/05/02 10:39:29;;;;;;;;;;;22.80;38.50;;;;;;1511993;77;1108;-72
2021/05/02 10:41:34;;;;;;;;;;;22.80;38.50;;;;;;1512519;77;775;-73
2021/05/02 10:43:36;;;;;;;;;;;22.70;38.50;;;;;;1518862;77;1908;-75
2021/05/02 10:45:44;;;;;;;;;;;22.80;38.60;;;;;;1519322;77;817;-71
2021/05/02 10:47:46;;;;;;;;;;;22.80;38.50;;;;;;1522153;77;731;-73
2021/05/02 10:49:53;;;;;;;;;;;22.80;38.50;;;;;;1518722;76;1169;-71
2021/05/02 10:51:57;;;;;;;;;;;22.90;38.60;;;;;;1516994;77;864;-71
2021/05/02 10:54:11;;;;;;;;;;;22.90;38.50;;;;;;1517773;77;647;-74
2021/05/02 10:56:15;;;;;;;;;;;22.90;38.50;;;;;;1512351;77;722;-74
2021/05/02 10:58:24;;;;;;;;;;;22.90;38.50;;;;;;1512733;77;661;-72
2021/05/02 11:00:26;;;;;;;;;;;22.90;38.50;;;;;;1510400;77;1154;-72
2021/05/02 11:02:42;;;;;;;;;;;22.90;38.60;;;;;;1498837;78;1936;-72
2021/05/02 11:04:48;;;;;;;;;;;22.90;38.60;;;;;;1514843;77;944;-74
2021/05/02 11:06:54;;;;;;;;;;;22.90;38.70;;;;;;1512266;77;1583;-73
2021/05/02 11:09:01;;;;;;;;;;;22.80;38.60;;;;;;1503975;77;1181;-72
2021/05/02 11:11:00;;;;;;;;;;;22.90;38.70;;;;;;1474511;79;1650;-74
2021/05/02 11:13:03;;;;;;;;;;;22.90;38.60;;;;;;1501551;77;921;-73
2021/05/02 11:15:22;;;;;;;;;;;22.90;38.40;;;;;;1499083;78;1381;-73
2021/05/02 11:17:24;;;;;;;;;;;22.90;38.30;;;;;;1506767;78;736;-73
2021/05/02 11:19:38;;;;;;;;;;;23.00;38.10;;;;;;1503078;77;1148;-73
2021/05/02 11:21:51;;;;;;;;;;;23.00;38.00;;;;;;1497938;78;1579;-71
2021/05/02 11:23:54;;;;;;;;;;;23.00;37.90;;;;;;1502908;78;1911;-71
2021/05/02 11:26:01;;;;;;;;;;;23.00;38.10;;;;;;1505345;78;729;-68
2021/05/02 11:28:02;;;;;;;;;;;23.00;38.10;;;;;;1503237;78;1499;-72
2021/05/02 11:30:13;;;;;;;;;;;22.90;38.20;;;;;;1507194;77;1691;-71
2021/05/02 11:32:11;;;;;;;;;;;22.90;38.20;;;;;;1500922;78;1613;-72
2021/05/02 11:34:12;;;;;;;;;;;22.90;38.40;;;;;;1513222;77;754;-71
2021/05/02 11:36:18;;;;;;;;;;;22.90;38.40;;;;;;1516729;77;748;-70
2021/05/02 11:38:20;;;;;;;;;;;22.90;38.50;;;;;;1514447;77;1858;-71
2021/05/02 11:40:26;;;;;;;;;;;22.90;38.40;;;;;;1512984;77;1131;-72
2021/05/02 11:42:28;;;;;;;;;;;22.90;38.40;;;;;;1515721;77;1939;-71
2021/05/02 11:44:31;;;;;;;;;;;22.90;38.50;;;;;;1512606;77;748;-71
2021/05/02 11:46:33;;;;;;;;;;;22.90;38.50;;;;;;1514144;77;882;-71
2021/05/02 11:48:35;;;;;;;;;;;22.90;38.60;;;;;;1510808;77;701;-70
2021/05/02 11:50:38;;;;;;;;;;;22.90;38.50;;;;;;1511431;77;1089;-71
2021/05/02 11:52:46;;;;;;;;;;;23.00;38.50;;;;;;1508221;77;808;-72
2021/05/02 11:54:48;;;;;;;;;;;22.90;38.50;;;;;;1515580;77;822;-73
2021/05/02 11:56:53;;;;;;;;;;;22.90;38.60;;;;;;1516038;77;819;-70
2021/05/02 11:59:00;;;;;;;;;;;22.90;38.90;;;;;;1515969;77;1178;-72
2021/05/02 12:01:04;;;;;;;;;;;22.90;38.90;;;;;;1514270;77;1228;-72
2021/05/02 12:03:06;;;;;;;;;;;22.90;38.90;;;;;;1517937;77;1936;-71
2021/05/02 12:05:08;;;;;;;;;;;22.90;39.00;;;;;;1510046;77;697;-72
2021/05/02 12:07:09;;;;;;;;;;;22.90;39.00;;;;;;1523829;77;716;-70
2021/05/02 12:09:13;;;;;;;;;;;22.90;39.10;;;;;;1513799;77;1156;-70
2021/05/02 12:11:15;;;;;;;;;;;23.00;39.10;;;;;;1517777;77;721;-72